Nearby METAR Reports

 

KGIF - Winter Haven, Florida, USA
Distance from station: SW 11mi, 18km
Updated: Fri, 02-Dec-2022 7:53am EST
Clear
Clear
 Wind from NE
Wind: NE 9 mph , 15 km/h
Temperature: 66°F , 19°C
Dew Point: 57°F , 14°C
Humidity: 73%
Barometer: 30.33 inHg , 1027.1 hPa
Clouds: Clear
Visibility: 10 miles , 16 km
2022/12/02 12:53 KGIF 021253Z AUTO 04008KT 10SM CLR 19/14 A3033 RMK AO2 SLP268 T01890144
KISM - Kissimmee/Orland, Florida, USA
Distance from station: NE 13mi, 22km
Updated: Fri, 02-Dec-2022 7:56am EST
Mostly cloudy
Mostly cloudy
 Wind from NNE
Wind: NNE 5 mph , 7 km/h
Temperature: 64°F , 18°C
Dew Point: 57°F , 14°C
Humidity: 78%
Barometer: 30.34 inHg , 1027.4 hPa
Clouds: Mostly cloudy
Visibility: 10 miles , 16 km
Cloud details: Mostly cloudy 4400 ft
2022/12/02 12:56 KISM 021256Z 03004KT 10SM BKN044 18/14 A3034 RMK AO2 SLP274 T01830144 PNO $
 
KBOW - Bartow Municipal, Florida, USA
Distance from station: SSW 19mi, 31km
Updated: Fri, 02-Dec-2022 8:15am EST
Clear
Clear
 Wind from NE
Wind: NE 8 mph , 13 km/h
Temperature: 68°F , 20°C
Dew Point: 59°F , 15°C
Humidity: 73%
Barometer: 30.33 inHg , 1027.1 hPa
Clouds: Clear
Visibility: 10 miles , 16 km
2022/12/02 13:15 KBOW 021315Z AUTO 05007KT 10SM CLR 20/15 A3033 RMK AO2
KMCO - Orlando, Florida, USA
Distance from station: NE 24mi, 39km
Updated: Fri, 02-Dec-2022 7:53am EST
Partly cloudy
Partly cloudy
 Wind from NNE
Wind: NNE 8 mph , 13 km/h
Temperature: 66°F , 19°C
Dew Point: 57°F , 14°C
Humidity: 73%
Barometer: 30.33 inHg , 1027.1 hPa
Clouds: Partly cloudy
Visibility: 10 miles , 16 km
Cloud details: Partly cloudy 4600 ft
2022/12/02 12:53 KMCO 021253Z 02007KT 10SM SCT046 19/14 A3033 RMK AO2 SLP268 T01940144
 
KLAL - Lakeland Regiona, Florida, USA
Distance from station: WSW 28mi, 46km
Updated: Fri, 02-Dec-2022 8:15am EST
Clear
Clear
 Wind from NNE
Wind: NNE 6 mph , 9 km/h
Temperature: 64°F , 18°C
Dew Point: 57°F , 14°C
Humidity: 78%
Barometer: 30.33 inHg , 1027.1 hPa
Clouds: Clear
Visibility: 10 miles , 16 km
2022/12/02 13:15 KLAL 021315Z AUTO 03005KT 10SM CLR 18/14 A3033 RMK AO2 T01780141
KORL - Orlando, Florida, USA
Distance from station: NNE 31mi, 50km
Updated: Fri, 02-Dec-2022 7:53am EST
Partly cloudy
Partly cloudy
 Wind from NE
Wind: NE 5 mph , 7 km/h
Temperature: 66°F , 19°C
Dew Point: 57°F , 14°C
Humidity: 73%
Barometer: 30.33 inHg , 1027.1 hPa
Clouds: Partly cloudy
Visibility: 10 miles , 16 km
Cloud details: Partly cloudy 4600 ft
2022/12/02 12:53 KORL 021253Z 04004KT 10SM SCT046 19/14 A3033 RMK AO2 SLP275 T01940144
 
KZPH - Zephyrhills, Florida, USA
Distance from station: W 33mi, 53km
Updated: Fri, 02-Dec-2022 8:15am EST
Clear
Clear
 Wind from NNE
Wind: NNE 6 mph , 9 km/h
Temperature: 61°F , 16°C
Dew Point: 59°F , 15°C
Humidity: 94%
Barometer: 30.34 inHg , 1027.4 hPa
Clouds: Clear
Visibility: 10 miles , 16 km
2022/12/02 13:15 KZPH 021315Z AUTO 02005KT 10SM CLR 16/15 A3034 RMK A02 T01600149
KPCM - Plant City Muni, Florida, USA
Distance from station: WSW 36mi, 57km
Updated: Fri, 02-Dec-2022 8:15am EST
Clear
Clear
 Wind from NNE
Wind: NNE 3 mph , 6 km/h
Temperature: 64°F , 18°C
Dew Point: 57°F , 14°C
Humidity: 78%
Barometer: 30.35 inHg , 1027.8 hPa
Clouds: Clear
Visibility: 10 miles , 16 km
2022/12/02 13:15 KPCM 021315Z AUTO 03003KT 10SM CLR 18/14 A3035 RMK AO2
 
KVDF - Tampa/Vandenburg, Florida, USA
Distance from station: WSW 45mi, 73km
Updated: Tue, 15-Nov-2022 7:35am EST
NOT Current
Clear
Clear
 Wind from calm
Wind: Calm
Barometer: 30.11 inHg , 1019.6 hPa
Clouds: Clear
Visibility: 10 miles , 16 km
2022/11/15 12:35 KVDF 151235Z AUTO 00000KT 10SM CLR A3011 RMK AO2
KLEE - Leesburg, Florida, USA
Distance from station: NNW 46mi, 74km
Updated: Fri, 02-Dec-2022 7:53am EST
Mostly cloudy
Mostly cloudy
 Wind from NNE
Wind: NNE 5 mph , 7 km/h
Temperature: 63°F , 17°C
Dew Point: 57°F , 14°C
Humidity: 83%
Barometer: 30.35 inHg , 1027.8 hPa
Clouds: Mostly cloudy
Visibility: 10 miles , 16 km
Cloud details: Mostly cloudy 4500 ft
2022/12/02 12:53 KLEE 021253Z 03004KT 10SM BKN045 17/14 A3035 RMK AO2 SLP277 T01670139
 
KSFB - Sanford/Orlando, Florida, USA
Distance from station: NNE 47mi, 76km
Updated: Fri, 02-Dec-2022 7:53am EST
Mostly cloudy
Mostly cloudy
 Wind from NNE
Wind: NNE 7 mph , 11 km/h
Temperature: 64°F , 18°C
Dew Point: 57°F , 14°C
Humidity: 78%
Barometer: 30.34 inHg , 1027.4 hPa
Clouds: Mostly cloudy
Visibility: 10 miles , 16 km
Cloud details: Mostly cloudy 4800 ft
2022/12/02 12:53 KSFB 021253Z AUTO 03006KT 10SM BKN048 18/14 A3034 RMK AO2 SLP272 T01830144